createdAt,value
2019-01-06T00:00:43.453Z,0.00
2019-01-06T00:01:43.534Z,0.00
2019-01-06T00:02:43.394Z,0.00
2019-01-06T00:03:43.434Z,0.00
2019-01-06T00:04:43.331Z,0.00
2019-01-06T00:05:43.352Z,0.00
2019-01-06T00:06:43.282Z,0.00
2019-01-06T00:07:43.277Z,0.00
2019-01-06T00:08:43.222Z,0.00
2019-01-06T00:09:43.199Z,0.00
2019-01-06T00:10:43.183Z,0.00
2019-01-06T00:11:43.144Z,0.00
2019-01-06T00:12:43.193Z,0.00
2019-01-06T00:13:43.082Z,0.00
2019-01-06T00:14:43.057Z,0.00
2019-01-06T00:15:43.114Z,0.00
2019-01-06T00:16:42.992Z,0.00
2019-01-06T00:17:43.023Z,0.00
2019-01-06T00:18:42.933Z,0.00
2019-01-06T00:19:42.933Z,0.00
2019-01-06T00:20:42.893Z,0.00
2019-01-06T00:21:42.942Z,0.00
2019-01-06T00:22:42.825Z,0.00
2019-01-06T00:23:42.857Z,0.00
2019-01-06T00:24:42.764Z,0.00
2019-01-06T00:25:42.736Z,0.00
2019-01-06T00:26:42.773Z,0.00
2019-01-06T00:27:42.673Z,0.00
2019-01-06T00:28:42.683Z,0.00
2019-01-06T00:29:42.623Z,0.00
2019-01-06T00:30:42.592Z,0.00
2019-01-06T00:31:42.577Z,0.00
2019-01-06T00:32:42.601Z,0.00
2019-01-06T00:33:42.502Z,0.00
2019-01-06T00:34:42.514Z,0.00
2019-01-06T00:35:42.443Z,0.00
2019-01-06T00:36:42.411Z,0.00
2019-01-06T00:37:42.432Z,0.00
2019-01-06T00:38:42.373Z,0.00
2019-01-06T00:39:42.445Z,0.00
2019-01-06T00:40:42.303Z,0.00
2019-01-06T00:41:42.285Z,0.00
2019-01-06T00:42:42.247Z,0.00
2019-01-06T00:43:42.273Z,0.00
2019-01-06T00:44:42.193Z,0.00
2019-01-06T00:45:42.251Z,0.00
2019-01-06T00:46:42.132Z,0.00
2019-01-06T00:47:42.204Z,0.00
2019-01-06T00:48:42.086Z,0.00
2019-01-06T00:49:42.105Z,0.00
2019-01-06T00:50:42.012Z,0.00
2019-01-06T00:51:42.014Z,0.00
2019-01-06T00:52:41.959Z,0.00
2019-01-06T00:53:42.022Z,0.00
2019-01-06T00:54:41.902Z,0.00
2019-01-06T00:55:41.931Z,0.00
2019-01-06T00:56:41.854Z,0.00
2019-01-06T00:57:41.814Z,0.00
2019-01-06T00:58:41.782Z,0.00
2019-01-06T00:59:41.854Z,0.00
2019-01-06T01:00:41.743Z,0.00
2019-01-06T01:01:41.762Z,0.00
2019-01-06T01:02:41.672Z,0.00
2019-01-06T01:03:41.632Z,0.00
2019-01-06T01:04:41.616Z,0.00
2019-01-06T01:05:41.687Z,0.00
2019-01-06T01:06:41.563Z,0.00
2019-01-06T01:07:41.606Z,0.00
2019-01-06T01:08:41.607Z,0.00
2019-01-06T01:09:41.473Z,0.00
2019-01-06T01:10:41.516Z,0.00
2019-01-06T01:11:41.414Z,0.00
2019-01-06T01:12:41.421Z,0.00
2019-01-06T01:13:41.363Z,0.00
2019-01-06T01:14:41.325Z,0.00
2019-01-06T01:15:41.345Z,0.00
2019-01-06T01:16:41.276Z,0.00
2019-01-06T01:17:41.255Z,0.00
2019-01-06T01:18:41.213Z,0.00
2019-01-06T01:19:41.835Z,0.00
2019-01-06T01:20:41.163Z,0.00
2019-01-06T01:21:41.124Z,0.00
2019-01-06T01:22:41.183Z,0.00
2019-01-06T01:23:41.064Z,0.00
2019-01-06T01:24:41.094Z,0.00
2019-01-06T01:25:41.005Z,0.00
2019-01-06T01:26:48.077Z,0.00
2019-01-06T01:27:40.963Z,0.00
2019-01-06T01:28:41.012Z,0.00
2019-01-06T01:29:40.892Z,0.00
2019-01-06T01:30:40.874Z,0.00
2019-01-06T01:31:40.933Z,0.00
2019-01-06T01:32:40.804Z,0.00
2019-01-06T01:33:40.843Z,0.00
2019-01-06T01:34:40.743Z,0.00
2019-01-06T01:35:40.718Z,0.00
2019-01-06T01:36:40.692Z,0.00
2019-01-06T01:37:40.762Z,0.00
2019-01-06T01:38:40.634Z,0.00
2019-01-06T01:39:40.676Z,0.00
2019-01-06T01:40:40.584Z,0.00
2019-01-06T01:41:40.543Z,0.00
2019-01-06T01:42:40.605Z,0.00
2019-01-06T01:43:40.493Z,0.00
2019-01-06T01:44:40.505Z,0.00
2019-01-06T01:45:40.434Z,0.00
2019-01-06T01:46:40.403Z,0.00
2019-01-06T01:47:40.374Z,0.00
2019-01-06T01:48:40.423Z,0.00
2019-01-06T01:49:40.312Z,0.00
2019-01-06T01:50:40.334Z,0.00
2019-01-06T01:51:40.253Z,0.00
2019-01-06T01:52:47.594Z,0.00
2019-01-06T01:54:44.326Z,0.00
2019-01-06T01:55:44.225Z,0.00
2019-01-06T01:57:48.172Z,0.00
2019-01-06T01:58:48.202Z,0.00
2019-01-06T02:00:52.143Z,0.00
2019-01-06T02:01:52.043Z,0.00
2019-01-06T02:03:56.053Z,0.00
2019-01-06T02:04:55.953Z,0.00
2019-01-06T02:06:59.903Z,0.00
2019-01-06T02:07:59.933Z,0.00
2019-01-06T02:10:03.822Z,0.00
2019-01-06T02:11:03.772Z,0.00
2019-01-06T02:13:07.727Z,0.00
2019-01-06T02:14:07.684Z,0.00
2019-01-06T02:16:11.692Z,0.00
2019-01-06T02:17:11.594Z,0.00
2019-01-06T02:19:15.603Z,0.00
2019-01-06T02:20:15.507Z,0.00
2019-01-06T02:22:08.466Z,0.00
2019-01-06T02:23:08.353Z,0.00
2019-01-06T02:25:12.464Z,0.00
2019-01-06T02:26:12.364Z,0.00
2019-01-06T02:28:16.372Z,0.00
2019-01-06T02:29:16.272Z,0.00
2019-01-06T02:31:20.299Z,0.00
2019-01-06T02:32:20.184Z,0.00
2019-01-06T02:34:24.205Z,0.00
2019-01-06T02:35:24.102Z,0.00
2019-01-06T02:37:28.122Z,0.00
2019-01-06T02:38:28.016Z,0.00
2019-01-06T02:40:32.013Z,0.00
2019-01-06T02:41:31.912Z,0.00
2019-01-06T02:43:35.923Z,0.00
2019-01-06T02:44:35.831Z,0.00
2019-01-06T02:46:39.846Z,0.00
2019-01-06T02:47:39.740Z,0.00
2019-01-06T02:49:43.741Z,0.00
2019-01-06T02:50:43.723Z,0.00
2019-01-06T02:52:36.590Z,0.00
2019-01-06T02:53:36.500Z,0.00
2019-01-06T02:55:40.527Z,0.00
2019-01-06T02:56:40.418Z,0.00
2019-01-06T02:58:44.424Z,0.00
2019-01-06T02:59:44.321Z,0.00
2019-01-06T03:01:48.329Z,0.00
2019-01-06T03:02:48.242Z,0.00
2019-01-06T03:04:52.244Z,0.00
2019-01-06T03:05:52.153Z,0.00
2019-01-06T03:07:56.140Z,0.00
2019-01-06T03:08:56.050Z,0.00
2019-01-06T03:11:00.053Z,0.00
2019-01-06T03:11:59.972Z,0.00
2019-01-06T03:14:03.961Z,0.00
2019-01-06T03:15:03.876Z,0.00
2019-01-06T03:17:07.871Z,0.00
2019-01-06T03:18:07.791Z,0.00
2019-01-06T03:20:11.791Z,0.00
2019-01-06T03:21:11.694Z,0.00
2019-01-06T03:23:15.690Z,0.00
2019-01-06T03:24:15.591Z,0.00
2019-01-06T03:26:19.600Z,0.00
2019-01-06T03:27:19.513Z,0.00
2019-01-06T03:29:23.509Z,0.00
2019-01-06T03:30:23.411Z,0.00
2019-01-06T03:32:16.572Z,0.00
2019-01-06T03:33:16.366Z,0.00
2019-01-06T03:35:20.383Z,0.00
2019-01-06T03:36:20.282Z,0.00
2019-01-06T03:38:24.291Z,0.00
2019-01-06T03:39:24.193Z,0.00
2019-01-06T03:41:28.221Z,0.00
2019-01-06T03:42:28.104Z,0.00
2019-01-06T03:44:32.123Z,0.00
2019-01-06T03:45:32.013Z,0.00
2019-01-06T03:47:36.140Z,0.00
2019-01-06T03:48:36.032Z,0.00
2019-01-06T03:50:40.151Z,0.00
2019-01-06T03:51:40.053Z,0.00
2019-01-06T03:53:43.996Z,0.00
2019-01-06T03:54:43.963Z,0.00
2019-01-06T03:56:47.970Z,0.00
2019-01-06T03:57:47.871Z,0.00
2019-01-06T03:59:51.805Z,0.00
2019-01-06T04:00:51.770Z,0.00
2019-01-06T04:02:44.710Z,0.00
2019-01-06T04:03:44.624Z,0.00
2019-01-06T04:05:48.572Z,0.00
2019-01-06T04:06:48.532Z,0.00
2019-01-06T04:08:52.543Z,0.00
2019-01-06T04:09:52.431Z,0.00
2019-01-06T04:11:56.445Z,0.00
2019-01-06T04:12:56.351Z,0.00
2019-01-06T04:15:00.349Z,0.00
2019-01-06T04:16:00.321Z,0.00
2019-01-06T04:18:04.273Z,0.00
2019-01-06T04:19:04.173Z,0.00
2019-01-06T04:21:08.109Z,0.00
2019-01-06T04:22:08.083Z,0.00
2019-01-06T04:24:12.090Z,0.00
2019-01-06T04:25:11.991Z,0.00
2019-01-06T04:27:16.002Z,0.00
2019-01-06T04:28:15.904Z,0.00
2019-01-06T04:30:19.911Z,0.00
2019-01-06T04:31:19.813Z,0.00
2019-01-06T04:33:23.821Z,0.00
2019-01-06T04:34:23.717Z,0.00
2019-01-06T04:36:27.733Z,0.00
2019-01-06T04:37:27.619Z,0.00
2019-01-06T04:39:31.631Z,0.00
2019-01-06T04:40:31.530Z,0.00
2019-01-06T04:42:24.491Z,0.00
2019-01-06T04:43:24.391Z,0.00
2019-01-06T04:45:28.343Z,0.00
2019-01-06T04:46:28.371Z,0.00
2019-01-06T04:48:32.250Z,0.00
2019-01-06T04:49:32.321Z,0.00
2019-01-06T04:51:36.211Z,0.00
2019-01-06T04:52:36.131Z,0.00
2019-01-06T04:54:40.129Z,0.00
2019-01-06T04:55:40.028Z,0.00
2019-01-06T04:57:43.979Z,0.00
2019-01-06T04:58:44.010Z,0.00
2019-01-06T05:00:47.900Z,0.00
2019-01-06T05:01:47.914Z,0.00
2019-01-06T05:03:51.790Z,0.00
2019-01-06T05:04:51.776Z,0.00
2019-01-06T05:06:55.772Z,0.00
2019-01-06T05:07:55.673Z,0.00
2019-01-06T05:09:59.672Z,0.00
2019-01-06T05:10:59.570Z,0.00
2019-01-06T05:12:52.531Z,0.00
2019-01-06T05:13:52.442Z,0.00
2019-01-06T05:15:56.442Z,0.00
2019-01-06T05:16:56.345Z,0.00
2019-01-06T05:19:00.352Z,0.00
2019-01-06T05:20:00.277Z,0.00
2019-01-06T05:22:04.262Z,0.00
2019-01-06T05:23:04.168Z,0.00
2019-01-06T05:25:08.171Z,0.00
2019-01-06T05:26:08.070Z,0.00
2019-01-06T05:28:12.033Z,0.00
2019-01-06T05:29:11.981Z,0.00
2019-01-06T05:31:15.991Z,0.00
2019-01-06T05:32:15.891Z,0.00
2019-01-06T05:34:19.911Z,0.00
2019-01-06T05:35:19.802Z,0.00
2019-01-06T05:37:23.810Z,0.00
2019-01-06T05:38:23.710Z,0.00
2019-01-06T05:40:27.720Z,0.00
2019-01-06T05:41:27.693Z,0.00
2019-01-06T05:43:31.634Z,0.00
2019-01-06T05:44:31.531Z,0.00
2019-01-06T05:46:35.481Z,0.00
2019-01-06T05:47:35.453Z,0.00
2019-01-06T05:49:39.402Z,0.00
2019-01-06T05:50:39.431Z,0.00
2019-01-06T05:52:32.241Z,0.00
2019-01-06T05:53:32.271Z,0.00
2019-01-06T05:55:36.210Z,0.00
2019-01-06T05:56:36.112Z,0.00
2019-01-06T05:58:40.126Z,0.00
2019-01-06T05:59:40.020Z,0.00
2019-01-06T06:01:44.030Z,0.00
2019-01-06T06:02:44.001Z,0.00
2019-01-06T06:04:47.941Z,0.00
2019-01-06T06:05:47.851Z,0.00
2019-01-06T06:07:51.790Z,0.00
2019-01-06T06:08:51.751Z,0.00
2019-01-06T06:10:55.772Z,0.00
2019-01-06T06:11:55.660Z,0.00
2019-01-06T06:13:59.669Z,0.00
2019-01-06T06:14:59.582Z,0.00
2019-01-06T06:17:03.524Z,0.00
2019-01-06T06:18:05.593Z,0.00
2019-01-06T06:20:07.501Z,0.00
2019-01-06T06:21:07.415Z,0.00
2019-01-06T06:23:11.361Z,0.00
2019-01-06T06:24:11.311Z,0.00
2019-01-06T06:26:15.313Z,0.00
2019-01-06T06:27:15.212Z,0.00
2019-01-06T06:29:19.161Z,0.00
2019-01-06T06:30:19.124Z,0.00
2019-01-06T06:32:12.080Z,0.00
2019-01-06T06:33:11.987Z,0.00
2019-01-06T06:35:15.990Z,0.00
2019-01-06T06:36:15.891Z,0.00
2019-01-06T06:38:19.893Z,0.00
2019-01-06T06:39:19.801Z,0.00
2019-01-06T06:41:23.801Z,0.00
2019-01-06T06:42:23.701Z,0.00
2019-01-06T06:44:27.711Z,0.00
2019-01-06T06:45:27.680Z,0.00
2019-01-06T06:47:31.621Z,0.00
2019-01-06T06:48:31.520Z,0.00
2019-01-06T06:50:35.471Z,0.00
2019-01-06T06:51:35.440Z,0.00
2019-01-06T06:52:35.511Z,0.00
2019-01-06T06:53:35.370Z,0.00
2019-01-06T06:54:35.420Z,0.00
2019-01-06T06:55:35.322Z,0.00
2019-01-06T06:56:35.312Z,0.00
2019-01-06T06:57:35.331Z,0.00
2019-01-06T06:58:35.232Z,0.00
2019-01-06T06:59:35.240Z,0.00
2019-01-06T07:00:35.169Z,0.00
2019-01-06T07:01:35.149Z,0.00
2019-01-06T07:02:35.112Z,0.00
2019-01-06T07:03:35.171Z,0.00
2019-01-06T07:04:35.052Z,0.00
2019-01-06T07:05:35.083Z,0.00
2019-01-06T07:06:34.990Z,0.00
2019-01-06T07:07:34.994Z,0.00
2019-01-06T07:08:34.941Z,0.00
2019-01-06T07:09:35.003Z,0.00
2019-01-06T07:10:34.881Z,0.00
2019-01-06T07:11:34.911Z,0.00
2019-01-06T07:12:34.833Z,0.00
2019-01-06T07:13:34.822Z,0.00
2019-01-06T07:14:34.761Z,0.00
2019-01-06T07:15:34.831Z,0.00
2019-01-06T07:16:34.711Z,0.00
2019-01-06T07:17:34.671Z,0.00
2019-01-06T07:18:34.641Z,0.00
2019-01-06T07:19:34.649Z,0.00
2019-01-06T07:20:34.589Z,0.00
2019-01-06T07:21:34.662Z,0.00
2019-01-06T07:22:34.534Z,0.00
2019-01-06T07:23:34.572Z,0.00
2019-01-06T07:24:34.471Z,0.00
2019-01-06T07:25:34.490Z,0.00
2019-01-06T07:26:34.421Z,0.00
2019-01-06T07:27:34.390Z,0.00
2019-01-06T07:28:34.354Z,0.00
2019-01-06T07:29:34.414Z,0.00
2019-01-06T07:30:34.299Z,0.00
2019-01-06T07:31:34.320Z,0.00
2019-01-06T07:32:34.244Z,0.00
2019-01-06T07:33:34.209Z,0.00
2019-01-06T07:34:34.230Z,0.00
2019-01-06T07:35:34.153Z,0.00
2019-01-06T07:36:34.140Z,0.00
2019-01-06T07:37:34.092Z,0.00
2019-01-06T07:38:34.060Z,0.00
2019-01-06T07:39:34.029Z,0.00
2019-01-06T07:40:34.070Z,0.00
2019-01-06T07:41:33.981Z,0.00
2019-01-06T07:42:33.979Z,0.00
2019-01-06T07:43:33.920Z,0.00
2019-01-06T07:44:33.900Z,0.00
2019-01-06T07:45:33.902Z,0.00
2019-01-06T07:46:33.833Z,0.00
2019-01-06T07:47:33.910Z,0.00
2019-01-06T07:48:33.771Z,0.00
2019-01-06T07:49:33.751Z,0.00
2019-01-06T07:50:33.711Z,0.00
2019-01-06T07:51:33.740Z,0.00
2019-01-06T07:52:33.651Z,0.00
2019-01-06T07:53:33.730Z,0.00
2019-01-06T07:54:33.642Z,0.00
2019-01-06T07:55:33.574Z,0.00
2019-01-06T07:56:33.691Z,0.00
2019-01-06T07:57:33.512Z,0.00
2019-01-06T07:58:33.573Z,0.00
2019-01-06T07:59:33.450Z,0.00
2019-01-06T08:00:33.556Z,0.00
2019-01-06T08:01:33.393Z,0.00
2019-01-06T08:02:34.411Z,0.00
2019-01-06T08:03:33.332Z,5.63
2019-01-06T08:04:33.403Z,5.63
2019-01-06T08:05:33.301Z,5.63
2019-01-06T08:06:33.254Z,5.63
2019-01-06T08:07:33.319Z,5.63
2019-01-06T08:08:33.179Z,5.63
2019-01-06T08:09:33.231Z,5.63
2019-01-06T08:10:33.239Z,5.63
2019-01-06T08:11:33.100Z,11.25
2019-01-06T08:12:33.150Z,11.25
2019-01-06T08:13:33.041Z,11.25
2019-01-06T08:14:33.059Z,16.88
2019-01-06T08:15:32.993Z,11.25
2019-01-06T08:16:32.972Z,16.88
2019-01-06T08:17:32.931Z,16.88
2019-01-06T08:18:32.989Z,16.88
2019-01-06T08:19:32.884Z,16.88
2019-01-06T08:20:33.012Z,11.25
2019-01-06T08:21:32.810Z,11.25
2019-01-06T08:22:32.811Z,11.25
2019-01-06T08:23:32.752Z,11.25
2019-01-06T08:24:32.821Z,11.25
2019-01-06T08:25:32.700Z,11.25
2019-01-06T08:26:32.661Z,11.25
2019-01-06T08:27:32.642Z,11.25
2019-01-06T08:28:32.654Z,11.25
2019-01-06T08:29:32.580Z,11.25
2019-01-06T08:30:32.561Z,11.25
2019-01-06T08:31:32.521Z,11.25
2019-01-06T08:32:32.493Z,11.25
2019-01-06T08:33:32.481Z,11.25
2019-01-06T08:34:32.430Z,11.25
2019-01-06T08:35:32.498Z,11.25
2019-01-06T08:36:32.372Z,11.25
2019-01-06T08:37:32.340Z,11.25
2019-01-06T08:38:32.421Z,11.25
2019-01-06T08:39:32.281Z,11.25
2019-01-06T08:40:32.322Z,11.25
2019-01-06T08:41:32.220Z,11.25
2019-01-06T08:42:32.231Z,11.25
2019-01-06T08:43:32.160Z,11.25
2019-01-06T08:44:32.261Z,16.88
2019-01-06T08:45:32.110Z,16.88
2019-01-06T08:46:32.160Z,11.25
2019-01-06T08:47:32.051Z,11.25
2019-01-06T08:48:32.032Z,11.25
2019-01-06T08:49:32.001Z,11.25
2019-01-06T08:50:31.980Z,11.25
2019-01-06T08:51:31.931Z,11.25
2019-01-06T08:52:32.001Z,11.25
2019-01-06T08:53:31.881Z,11.25
2019-01-06T08:54:31.910Z,11.25
2019-01-06T08:55:31.809Z,11.25
2019-01-06T08:56:32.527Z,5.63
2019-01-06T08:57:31.763Z,5.63
2019-01-06T08:58:31.836Z,11.25
2019-01-06T08:59:31.723Z,11.25
2019-01-06T09:00:31.749Z,11.25
2019-01-06T09:01:31.641Z,11.25
2019-01-06T09:02:31.671Z,11.25
2019-01-06T09:03:31.592Z,11.25
2019-01-06T09:04:31.564Z,11.25
2019-01-06T09:05:31.531Z,11.25
2019-01-06T09:06:31.582Z,11.25
2019-01-06T09:07:31.486Z,11.25
2019-01-06T09:08:31.516Z,11.25
2019-01-06T09:09:31.419Z,11.25
2019-01-06T09:10:31.379Z,11.25
2019-01-06T09:11:31.416Z,11.25
2019-01-06T09:12:31.320Z,11.25
2019-01-06T09:13:31.330Z,11.25
2019-01-06T09:14:31.269Z,11.25
2019-01-06T09:15:31.241Z,11.25
2019-01-06T09:16:31.259Z,11.25
2019-01-06T09:17:31.185Z,11.25
2019-01-06T09:18:31.261Z,16.88
2019-01-06T09:19:31.123Z,16.88
2019-01-06T09:20:31.089Z,16.88
2019-01-06T09:21:31.071Z,16.88
2019-01-06T09:22:31.191Z,16.88
2019-01-06T09:23:31.012Z,22.50
2019-01-06T09:24:31.100Z,22.50
2019-01-06T09:25:30.949Z,22.50
2019-01-06T09:26:30.923Z,22.50
2019-01-06T09:27:31.024Z,22.50
2019-01-06T09:28:30.870Z,22.50
2019-01-06T09:29:32.425Z,22.50
2019-01-06T09:30:30.801Z,22.50
2019-01-06T09:31:30.781Z,28.13
2019-01-06T09:32:30.743Z,28.13
2019-01-06T09:33:30.850Z,28.13
2019-01-06T09:34:30.690Z,28.13
2019-01-06T09:35:31.201Z,28.13
2019-01-06T09:36:30.632Z,28.13
2019-01-06T09:37:30.679Z,28.13
2019-01-06T09:38:30.573Z,28.13
2019-01-06T09:39:30.604Z,33.75
2019-01-06T09:40:30.513Z,33.75
2019-01-06T09:41:30.503Z,33.75
2019-01-06T09:42:30.510Z,33.75
2019-01-06T09:43:30.420Z,33.75
2019-01-06T09:44:30.420Z,33.75
2019-01-06T09:45:31.074Z,39.38
2019-01-06T09:46:30.442Z,39.38
2019-01-06T09:47:30.312Z,33.75
2019-01-06T09:48:30.351Z,33.75
2019-01-06T09:49:30.259Z,33.75
2019-01-06T09:50:30.259Z,33.75
2019-01-06T09:51:30.193Z,33.75
2019-01-06T09:52:30.281Z,33.75
2019-01-06T09:53:30.141Z,33.75
2019-01-06T09:54:30.182Z,33.75
2019-01-06T09:55:30.091Z,39.38
2019-01-06T09:56:30.176Z,39.38
2019-01-06T09:57:30.032Z,39.38
2019-01-06T09:58:29.996Z,39.38
2019-01-06T09:59:29.985Z,39.38
2019-01-06T10:00:30.022Z,39.38
2019-01-06T10:01:29.919Z,39.38
2019-01-06T10:02:29.935Z,39.38
2019-01-06T10:03:29.854Z,45.00
2019-01-06T10:04:34.969Z,45.00
2019-01-06T10:05:29.868Z,45.00
2019-01-06T10:06:29.761Z,50.63
2019-01-06T10:07:29.761Z,50.63
2019-01-06T10:08:29.713Z,50.63
2019-01-06T10:09:29.679Z,50.63
2019-01-06T10:10:29.679Z,56.25
2019-01-06T10:11:29.621Z,61.88
2019-01-06T10:12:29.690Z,61.88
2019-01-06T10:13:29.561Z,67.50
2019-01-06T10:14:29.538Z,73.13
2019-01-06T10:15:29.513Z,73.13
2019-01-06T10:16:29.520Z,78.75
2019-01-06T10:17:29.446Z,73.13
2019-01-06T10:18:29.539Z,84.38
2019-01-06T10:19:29.391Z,101.25
2019-01-06T10:20:29.364Z,78.75
2019-01-06T10:21:29.350Z,78.75
2019-01-06T10:22:29.311Z,90.00
2019-01-06T10:23:29.363Z,106.88
2019-01-06T10:24:29.254Z,129.38
2019-01-06T10:25:29.229Z,163.13
2019-01-06T10:26:29.202Z,230.63
2019-01-06T10:27:29.189Z,331.88
2019-01-06T10:28:29.131Z,461.25
2019-01-06T10:29:29.200Z,742.50
2019-01-06T10:30:29.080Z,585.00
2019-01-06T10:31:29.053Z,618.75
2019-01-06T10:32:29.133Z,601.88
2019-01-06T10:33:29.003Z,967.50
2019-01-06T10:34:29.031Z,663.75
2019-01-06T10:35:28.949Z,573.75
2019-01-06T10:36:28.912Z,393.75
2019-01-06T10:37:28.892Z,483.75
2019-01-06T10:38:28.960Z,573.75
2019-01-06T10:39:28.832Z,354.38
2019-01-06T10:40:28.870Z,337.50
2019-01-06T10:41:28.770Z,309.38
2019-01-06T10:42:28.751Z,303.75
2019-01-06T10:43:28.792Z,309.38
2019-01-06T10:44:28.691Z,348.75
2019-01-06T10:45:28.701Z,360.00
2019-01-06T10:46:28.643Z,213.75
2019-01-06T10:47:28.625Z,202.50
2019-01-06T10:48:28.624Z,286.88
2019-01-06T10:49:28.572Z,326.25
2019-01-06T10:50:28.635Z,624.38
2019-01-06T10:51:28.512Z,1001.25
2019-01-06T10:52:28.487Z,1248.75
2019-01-06T10:53:28.456Z,1822.50
2019-01-06T10:54:28.471Z,163.13
2019-01-06T10:55:28.400Z,140.63
2019-01-06T10:56:28.472Z,123.75
2019-01-06T10:57:28.352Z,180.00
2019-01-06T10:58:28.335Z,213.75
2019-01-06T10:59:28.301Z,416.25
2019-01-06T11:00:28.292Z,309.38
2019-01-06T11:01:28.251Z,213.75
2019-01-06T11:02:29.421Z,225.00
2019-01-06T11:03:28.212Z,275.63
2019-01-06T11:04:28.161Z,427.50
2019-01-06T11:05:28.234Z,371.25
2019-01-06T11:06:28.122Z,1833.75
2019-01-06T11:07:28.145Z,900.00
2019-01-06T11:08:28.062Z,2570.63
2019-01-06T11:09:28.031Z,787.50
2019-01-06T11:10:28.060Z,1738.13
2019-01-06T11:11:27.980Z,1372.50
2019-01-06T11:12:28.072Z,1935.00
2019-01-06T11:13:27.942Z,1935.00
2019-01-06T11:14:27.910Z,1698.75
2019-01-06T11:15:27.894Z,1333.13
2019-01-06T11:16:27.891Z,1130.63
2019-01-06T11:17:27.852Z,1344.38
2019-01-06T11:18:27.909Z,1389.38
2019-01-06T11:19:27.801Z,641.25
2019-01-06T11:20:27.821Z,1524.38
2019-01-06T11:21:27.755Z,1710.00
2019-01-06T11:22:27.831Z,1035.00
2019-01-06T11:23:27.712Z,1366.88
2019-01-06T11:24:27.754Z,1175.63
2019-01-06T11:25:27.662Z,900.00
2019-01-06T11:26:27.662Z,1276.88
2019-01-06T11:27:27.657Z,601.88
2019-01-06T11:28:27.670Z,759.38
2019-01-06T11:29:27.580Z,967.50
2019-01-06T11:30:27.549Z,939.38
2019-01-06T11:31:27.530Z,2334.38
2019-01-06T11:32:27.602Z,2480.63
2019-01-06T11:33:27.490Z,2272.50
2019-01-06T11:34:27.514Z,2199.38
2019-01-06T11:35:27.455Z,781.88
2019-01-06T11:36:27.431Z,450.00
2019-01-06T11:37:27.432Z,658.13
2019-01-06T11:38:27.393Z,2446.88
2019-01-06T11:39:27.441Z,466.88
2019-01-06T11:40:27.342Z,2480.63
2019-01-06T11:41:27.331Z,2311.88
2019-01-06T11:42:27.314Z,1046.25
2019-01-06T11:43:27.374Z,2373.75
2019-01-06T11:44:27.281Z,2244.38
2019-01-06T11:45:27.281Z,2300.63
2019-01-06T11:46:27.234Z,2345.63
2019-01-06T11:47:27.293Z,2278.13
2019-01-06T11:48:27.203Z,2334.38
2019-01-06T11:49:27.215Z,2160.00
2019-01-06T11:50:27.165Z,1580.63
2019-01-06T11:51:27.221Z,1181.25
2019-01-06T11:52:27.235Z,736.88
2019-01-06T11:53:27.110Z,691.88
2019-01-06T11:54:27.142Z,860.63
2019-01-06T11:55:27.073Z,748.13
2019-01-06T11:56:27.152Z,635.63
2019-01-06T11:57:27.041Z,393.75
2019-01-06T11:58:27.061Z,348.75
2019-01-06T11:59:27.001Z,365.63
2019-01-06T12:00:27.087Z,309.38
2019-01-06T12:01:26.974Z,225.00
2019-01-06T12:02:27.004Z,860.63
2019-01-06T12:03:27.008Z,680.63
2019-01-06T12:04:26.913Z,759.38
2019-01-06T12:05:26.913Z,883.13
2019-01-06T12:06:26.872Z,663.75
2019-01-06T12:07:26.922Z,573.75
2019-01-06T12:08:27.014Z,1108.13
2019-01-06T12:09:26.824Z,1738.13
2019-01-06T12:10:26.843Z,1980.00
2019-01-06T12:11:26.830Z,1946.25
2019-01-06T12:12:26.859Z,455.63
2019-01-06T12:13:26.730Z,253.13
2019-01-06T12:14:26.770Z,213.75
2019-01-06T12:15:26.691Z,196.88
2019-01-06T12:16:26.784Z,208.13
2019-01-06T12:17:26.655Z,225.00
2019-01-06T12:18:26.704Z,202.50
2019-01-06T12:19:33.538Z,174.38
2019-01-06T12:20:26.745Z,613.13
2019-01-06T12:21:26.580Z,270.00
2019-01-06T12:22:26.622Z,438.75
2019-01-06T12:23:26.529Z,286.88
2019-01-06T12:24:26.513Z,416.25
2019-01-06T12:25:26.542Z,472.50
2019-01-06T12:26:26.479Z,585.00
2019-01-06T12:27:26.551Z,562.50
2019-01-06T12:28:26.440Z,495.00
2019-01-06T12:29:26.425Z,168.75
2019-01-06T12:30:26.389Z,146.25
2019-01-06T12:31:26.549Z,123.75
2019-01-06T12:32:26.351Z,101.25
2019-01-06T12:33:26.391Z,90.00
2019-01-06T12:34:26.323Z,73.13
2019-01-06T12:35:26.314Z,61.88
2019-01-06T12:36:26.262Z,50.63
2019-01-06T12:37:26.321Z,50.63
2019-01-06T12:38:26.224Z,39.38
2019-01-06T12:39:26.231Z,39.38
2019-01-06T12:40:26.180Z,33.75
2019-01-06T12:41:26.253Z,33.75
2019-01-06T12:42:26.128Z,33.75
2019-01-06T12:43:26.163Z,39.38
2019-01-06T12:44:27.035Z,39.38
2019-01-06T12:45:26.076Z,45.00
2019-01-06T12:46:26.050Z,45.00
2019-01-06T12:47:26.080Z,45.00
2019-01-06T12:48:25.992Z,45.00
2019-01-06T12:49:25.990Z,45.00
2019-01-06T12:50:26.246Z,45.00
2019-01-06T12:51:25.920Z,45.00
2019-01-06T12:52:26.012Z,50.63
2019-01-06T12:53:25.880Z,56.25
2019-01-06T12:54:25.929Z,61.88
2019-01-06T12:55:25.833Z,67.50
2019-01-06T12:56:25.811Z,73.13
2019-01-06T12:57:25.779Z,78.75
2019-01-06T12:58:25.850Z,84.38
2019-01-06T12:59:25.760Z,84.38
2019-01-06T13:00:25.763Z,90.00
2019-01-06T13:01:25.692Z,90.00
2019-01-06T13:02:25.682Z,90.00
2019-01-06T13:03:25.632Z,90.00
2019-01-06T13:04:25.719Z,90.00
2019-01-06T13:05:25.580Z,90.00
2019-01-06T13:06:25.601Z,90.00
2019-01-06T13:07:25.531Z,180.00
2019-01-06T13:08:25.513Z,185.63
2019-01-06T13:09:25.522Z,168.75
2019-01-06T13:10:25.459Z,123.75
2019-01-06T13:11:25.531Z,118.13
2019-01-06T13:12:25.408Z,106.88
2019-01-06T13:13:25.449Z,95.63
2019-01-06T13:14:25.360Z,84.38
2019-01-06T13:15:25.362Z,73.13
2019-01-06T13:16:25.310Z,61.88
2019-01-06T13:17:25.380Z,56.25
2019-01-06T13:18:25.267Z,50.63
2019-01-06T13:19:25.281Z,50.63
2019-01-06T13:20:25.210Z,45.00
2019-01-06T13:21:25.298Z,39.38
2019-01-06T13:22:25.160Z,39.38
2019-01-06T13:23:25.139Z,33.75
2019-01-06T13:24:25.107Z,28.13
2019-01-06T13:25:25.124Z,28.13
2019-01-06T13:26:25.061Z,28.13
2019-01-06T13:27:25.138Z,22.50
2019-01-06T13:28:25.010Z,22.50
2019-01-06T13:29:24.990Z,22.50
2019-01-06T13:30:25.049Z,22.50
2019-01-06T13:31:24.931Z,22.50
2019-01-06T13:32:24.971Z,22.50
2019-01-06T13:33:24.890Z,22.50
2019-01-06T13:34:24.861Z,22.50
2019-01-06T13:35:24.845Z,22.50
2019-01-06T13:36:24.888Z,22.50
2019-01-06T13:37:24.794Z,16.88
2019-01-06T13:38:24.800Z,16.88
2019-01-06T13:39:24.743Z,16.88
2019-01-06T13:40:24.830Z,16.88
2019-01-06T13:41:24.692Z,16.88
2019-01-06T13:42:24.739Z,16.88
2019-01-06T13:43:24.640Z,16.88
2019-01-06T13:44:24.641Z,16.88
2019-01-06T13:45:24.583Z,16.88
2019-01-06T13:46:24.671Z,16.88
2019-01-06T13:47:24.518Z,11.25
2019-01-06T13:48:24.570Z,11.25
2019-01-06T13:49:24.480Z,11.25
2019-01-06T13:50:24.447Z,11.25
2019-01-06T13:51:24.422Z,11.25
2019-01-06T13:52:24.490Z,11.25
2019-01-06T13:54:56.154Z,11.25
2019-01-06T13:55:56.122Z,11.25
2019-01-06T13:58:00.068Z,16.88
2019-01-06T13:58:59.991Z,16.88
2019-01-06T14:01:03.932Z,16.88
2019-01-06T14:02:03.960Z,16.88
2019-01-06T14:04:08.100Z,16.88
2019-01-06T14:05:07.811Z,16.88
2019-01-06T14:07:11.750Z,16.88
2019-01-06T14:08:11.772Z,16.88
2019-01-06T14:10:15.711Z,16.88
2019-01-06T14:11:15.636Z,16.88
2019-01-06T14:13:19.571Z,16.88
2019-01-06T14:14:19.590Z,16.88
2019-01-06T14:16:23.529Z,16.88
2019-01-06T14:17:23.437Z,16.88
2019-01-06T14:19:27.398Z,16.88
2019-01-06T14:20:27.408Z,16.88
2019-01-06T14:22:20.287Z,16.88
2019-01-06T14:23:20.261Z,16.88
2019-01-06T14:25:24.198Z,16.88
2019-01-06T14:26:24.110Z,16.88
2019-01-06T14:28:28.047Z,16.88
2019-01-06T14:29:28.013Z,16.88
2019-01-06T14:31:32.019Z,16.88
2019-01-06T14:32:31.938Z,16.88
2019-01-06T14:34:35.928Z,11.25
2019-01-06T14:35:35.838Z,11.25
2019-01-06T14:37:39.951Z,11.25
2019-01-06T14:38:39.855Z,11.25
2019-01-06T14:40:43.802Z,11.25
2019-01-06T14:41:43.827Z,11.25
2019-01-06T14:43:47.757Z,11.25
2019-01-06T14:44:47.730Z,11.25
2019-01-06T14:46:51.667Z,5.63
2019-01-06T14:47:51.587Z,5.63
2019-01-06T14:49:55.590Z,5.63
2019-01-06T14:50:55.489Z,5.63
2019-01-06T14:52:48.379Z,5.63
2019-01-06T14:53:48.400Z,5.63
2019-01-06T14:55:52.289Z,5.63
2019-01-06T14:56:52.249Z,5.63
2019-01-06T14:58:56.251Z,5.63
2019-01-06T14:59:56.159Z,5.63
2019-01-06T15:02:00.161Z,5.63
2019-01-06T15:03:00.082Z,5.63
2019-01-06T15:05:04.079Z,5.63
2019-01-06T15:06:03.979Z,5.63
2019-01-06T15:08:07.939Z,5.63
2019-01-06T15:09:07.950Z,5.63
2019-01-06T15:11:11.897Z,0.00